Time;durP1;ratioP1;P1;durP2;ratioP2;P2;SDS_P1;SDS_P2;PMS_P1;PMS_P2;Temp;Humidity;BMP_temperature;BMP_pressure;BME280_temperature;BME280_humidity;BME280_pressure;Samples;Min_cycle;Max_cycle;Signal;HPM_P1;HPM_P2
2022/04/13 00:00:56;;;;;;;3.20;2.87;;;;;;;;;;5058094;28;20187;-55
2022/04/13 00:03:22;;;;;;;4.27;3.00;;;;;;;;;;5068386;28;20581;-55
2022/04/13 00:05:49;;;;;;;4.67;2.97;;;;;;;;;;5077709;28;20537;-54
2022/04/13 00:08:15;;;;;;;3.43;3.00;;;;;;;;;;5066885;28;20195;-56
2022/04/13 00:10:43;;;;;;;3.57;2.70;;;;;;;;;;5068006;28;20203;-55
2022/04/13 00:13:09;;;;;;;2.73;2.53;;;;;;;;;;5067557;28;20184;-57
2022/04/13 00:15:37;;;;;;;2.70;2.50;;;;;;;;;;5068958;28;20188;-56
2022/04/13 00:18:07;;;;;;;3.40;2.80;;;;;;;;;;5049841;28;20188;-53
2022/04/13 00:20:34;;;;;;;3.77;2.87;;;;;;;;;;5064044;28;20196;-54
2022/04/13 00:23:01;;;;;;;3.13;2.87;;;;;;;;;;5049964;28;20678;-56
2022/04/13 00:25:28;;;;;;;3.50;3.20;;;;;;;;;;5048626;28;20204;-55
2022/04/13 00:27:55;;;;;;;4.37;3.30;;;;;;;;;;5038672;28;20185;-55
2022/04/13 00:30:21;;;;;;;3.67;2.57;;;;;;;;;;5057827;28;20181;-57
2022/04/13 00:32:47;;;;;;;4.07;3.00;;;;;;;;;;5046057;28;20181;-56
2022/04/13 00:35:14;;;;;;;4.03;3.10;;;;;;;;;;5055142;28;20189;-54
2022/04/13 00:37:40;;;;;;;2.90;2.70;;;;;;;;;;5064495;28;20184;-57
2022/04/13 00:40:07;;;;;;;4.73;2.73;;;;;;;;;;5043114;28;20271;-54
2022/04/13 00:42:34;;;;;;;5.83;2.77;;;;;;;;;;5057474;28;20632;-56
2022/04/13 00:45:01;;;;;;;3.20;2.90;;;;;;;;;;5049495;28;20212;-56
2022/04/13 00:47:27;;;;;;;2.97;2.77;;;;;;;;;;5046200;28;20655;-55
2022/04/13 00:49:54;;;;;;;3.53;2.90;;;;;;;;;;5038060;28;20204;-55
2022/04/13 00:52:21;;;;;;;3.57;2.90;;;;;;;;;;5054980;28;20181;-55
2022/04/13 00:54:48;;;;;;;3.23;2.73;;;;;;;;;;5036521;28;20322;-56
2022/04/13 00:57:16;;;;;;;3.00;2.80;;;;;;;;;;5065998;28;20204;-55
2022/04/13 00:59:44;;;;;;;5.03;3.30;;;;;;;;;;5062587;28;20304;-57
2022/04/13 01:02:12;;;;;;;3.63;3.03;;;;;;;;;;5038719;28;20173;-56
2022/04/13 01:04:38;;;;;;;3.10;2.73;;;;;;;;;;5066157;28;20176;-57
2022/04/13 01:07:09;;;;;;;4.73;3.10;;;;;;;;;;5054312;28;20177;-56
2022/04/13 01:09:36;;;;;;;3.10;2.80;;;;;;;;;;5059127;28;20186;-54
2022/04/13 01:12:03;;;;;;;4.63;3.60;;;;;;;;;;5067973;28;20199;-55
2022/04/13 01:14:29;;;;;;;3.70;2.90;;;;;;;;;;5045760;28;20220;-57
2022/04/13 01:16:56;;;;;;;3.13;2.83;;;;;;;;;;5061859;28;20278;-56
2022/04/13 01:19:22;;;;;;;4.90;2.80;;;;;;;;;;5042689;28;20185;-57
2022/04/13 01:21:58;;;;;;;3.97;3.27;;;;;;;;;;5063052;28;20235;-58
2022/04/13 01:24:24;;;;;;;3.13;2.63;;;;;;;;;;5058156;28;20192;-56
2022/04/13 01:26:50;;;;;;;2.70;2.50;;;;;;;;;;5049523;28;20227;-56
2022/04/13 01:29:17;;;;;;;3.67;2.80;;;;;;;;;;5054485;28;20235;-55
2022/04/13 01:31:44;;;;;;;4.53;3.10;;;;;;;;;;5060755;28;20275;-55
2022/04/13 01:34:10;;;;;;;4.67;3.10;;;;;;;;;;5061642;28;20181;-53
2022/04/13 01:36:37;;;;;;;4.43;2.90;;;;;;;;;;5047644;28;20188;-57
2022/04/13 01:39:04;;;;;;;3.20;2.90;;;;;;;;;;5023632;28;20180;-55
2022/04/13 01:41:31;;;;;;;3.43;3.13;;;;;;;;;;5065891;28;20187;-54
2022/04/13 01:43:57;;;;;;;3.73;3.43;;;;;;;;;;5033126;28;20182;-56
2022/04/13 01:46:24;;;;;;;3.63;3.20;;;;;;;;;;5059464;28;20266;-56
2022/04/13 01:48:50;;;;;;;4.03;3.43;;;;;;;;;;5046429;28;20238;-54
2022/04/13 01:51:20;;;;;;;3.63;3.33;;;;;;;;;;5067915;28;20180;-56
2022/04/13 01:53:47;;;;;;;4.67;3.30;;;;;;;;;;5038387;28;20642;-55
2022/04/13 01:56:14;;;;;;;3.40;3.10;;;;;;;;;;5063350;28;20650;-57
2022/04/13 01:58:40;;;;;;;4.40;3.47;;;;;;;;;;5060795;28;20586;-55
2022/04/13 02:01:07;;;;;;;5.23;2.90;;;;;;;;;;5045293;28;20192;-57
2022/04/13 02:03:33;;;;;;;3.17;2.87;;;;;;;;;;5063880;28;20184;-56
2022/04/13 02:05:59;;;;;;;4.40;3.93;;;;;;;;;;5057606;28;20288;-55
2022/04/13 02:08:26;;;;;;;3.17;2.50;;;;;;;;;;5062572;28;20788;-56
2022/04/13 02:10:53;;;;;;;3.93;2.90;;;;;;;;;;5055061;28;20231;-56
2022/04/13 02:13:21;;;;;;;3.10;2.80;;;;;;;;;;5040087;28;20577;-55
2022/04/13 02:15:48;;;;;;;3.07;2.57;;;;;;;;;;5054903;28;20169;-57
2022/04/13 02:18:15;;;;;;;3.10;2.90;;;;;;;;;;5060824;28;20191;-56
2022/04/13 02:20:41;;;;;;;3.63;2.83;;;;;;;;;;5042978;28;20190;-57
2022/04/13 02:23:07;;;;;;;3.83;2.80;;;;;;;;;;5062009;28;20965;-57
2022/04/13 02:25:35;;;;;;;5.20;2.97;;;;;;;;;;5044356;28;20266;-57
2022/04/13 02:28:03;;;;;;;2.87;2.63;;;;;;;;;;5079882;28;20631;-56
2022/04/13 02:30:29;;;;;;;3.40;2.73;;;;;;;;;;5062867;28;20547;-57
2022/04/13 02:32:56;;;;;;;5.03;3.13;;;;;;;;;;5067908;28;20185;-58
2022/04/13 02:35:22;;;;;;;3.00;2.77;;;;;;;;;;5064907;28;20238;-57
2022/04/13 02:37:48;;;;;;;3.50;2.77;;;;;;;;;;5062518;28;20188;-57
2022/04/13 02:40:14;;;;;;;4.80;3.00;;;;;;;;;;5030523;28;20663;-57
2022/04/13 02:42:41;;;;;;;3.53;3.23;;;;;;;;;;5056221;28;20215;-57
2022/04/13 02:45:13;;;;;;;3.40;3.10;;;;;;;;;;5073053;28;20227;-57
2022/04/13 02:47:40;;;;;;;6.33;3.40;;;;;;;;;;5048412;28;20176;-55
2022/04/13 02:50:07;;;;;;;5.03;3.20;;;;;;;;;;5045576;28;20173;-56
2022/04/13 02:52:33;;;;;;;4.23;3.33;;;;;;;;;;5043466;28;20552;-58
2022/04/13 02:54:59;;;;;;;5.37;3.00;;;;;;;;;;5040443;28;20659;-57
2022/04/13 02:57:25;;;;;;;3.40;2.70;;;;;;;;;;5065166;28;20236;-56
2022/04/13 02:59:51;;;;;;;3.00;2.80;;;;;;;;;;5068139;28;20184;-55
2022/04/13 03:02:17;;;;;;;3.57;2.97;;;;;;;;;;5067355;28;20669;-57
2022/04/13 03:04:46;;;;;;;3.37;2.83;;;;;;;;;;5066513;28;20271;-55
2022/04/13 03:07:13;;;;;;;3.20;2.90;;;;;;;;;;5055913;28;20647;-53
2022/04/13 03:09:39;;;;;;;4.87;3.10;;;;;;;;;;5052797;28;20551;-56
2022/04/13 03:12:06;;;;;;;3.70;2.83;;;;;;;;;;5049314;28;20186;-56
2022/04/13 03:14:33;;;;;;;3.63;3.33;;;;;;;;;;5061253;28;20216;-55
2022/04/13 03:16:59;;;;;;;10.80;10.10;;;;;;;;;;5068850;28;20189;-55
2022/04/13 03:19:26;;;;;;;5.10;3.17;;;;;;;;;;5065481;28;20174;-56
2022/04/13 03:21:54;;;;;;;3.07;2.77;;;;;;;;;;5043594;28;20198;-54
2022/04/13 03:24:24;;;;;;;3.60;3.03;;;;;;;;;;5057225;28;20182;-56
2022/04/13 03:26:50;;;;;;;4.10;3.70;;;;;;;;;;5064122;28;20264;-54
2022/04/13 03:29:17;;;;;;;3.53;3.00;;;;;;;;;;5071549;28;20595;-54
2022/04/13 03:31:43;;;;;;;10.47;9.97;;;;;;;;;;5054053;28;20562;-56
2022/04/13 03:34:10;;;;;;;3.30;3.00;;;;;;;;;;5060100;28;20528;-56
2022/04/13 03:36:42;;;;;;;3.57;3.23;;;;;;;;;;5065724;28;20183;-56
2022/04/13 03:39:08;;;;;;;3.40;3.10;;;;;;;;;;5055948;28;20521;-57
2022/04/13 03:41:35;;;;;;;3.17;2.80;;;;;;;;;;5052573;28;20548;-57
2022/04/13 03:44:02;;;;;;;3.77;3.47;;;;;;;;;;5071322;28;20404;-56
2022/04/13 03:46:29;;;;;;;3.77;3.47;;;;;;;;;;5067646;28;20224;-57
2022/04/13 03:48:55;;;;;;;2.93;2.63;;;;;;;;;;5057553;28;20730;-56
2022/04/13 03:51:21;;;;;;;5.97;3.03;;;;;;;;;;5043315;28;20388;-56
2022/04/13 03:53:48;;;;;;;3.50;3.13;;;;;;;;;;5033560;28;20185;-54
2022/04/13 03:56:14;;;;;;;3.90;3.00;;;;;;;;;;5058762;28;20283;-56
2022/04/13 03:58:41;;;;;;;3.10;2.80;;;;;;;;;;5070665;28;20631;-58
2022/04/13 04:01:10;;;;;;;4.20;3.87;;;;;;;;;;5080443;28;20184;-57
2022/04/13 04:03:37;;;;;;;3.93;3.10;;;;;;;;;;5071989;28;20491;-58
2022/04/13 04:06:04;;;;;;;3.43;3.13;;;;;;;;;;5043887;28;20233;-57
2022/04/13 04:08:32;;;;;;;3.20;2.90;;;;;;;;;;5070658;28;20180;-58
2022/04/13 04:10:59;;;;;;;4.37;3.00;;;;;;;;;;5050342;28;20188;-57
2022/04/13 04:13:25;;;;;;;3.23;2.67;;;;;;;;;;5049029;28;20272;-58
2022/04/13 04:15:51;;;;;;;3.27;3.00;;;;;;;;;;5039055;28;20180;-57
2022/04/13 04:18:18;;;;;;;3.47;3.17;;;;;;;;;;5053040;28;20733;-53
2022/04/13 04:20:44;;;;;;;3.57;3.03;;;;;;;;;;5057994;28;20196;-56
2022/04/13 04:23:10;;;;;;;3.00;2.73;;;;;;;;;;5046590;28;20662;-55
2022/04/13 04:25:36;;;;;;;2.70;2.50;;;;;;;;;;5060477;28;20288;-57
2022/04/13 04:28:03;;;;;;;3.37;3.07;;;;;;;;;;5070381;28;20548;-53
2022/04/13 04:30:31;;;;;;;3.00;2.70;;;;;;;;;;5044453;28;20201;-54
2022/04/13 04:32:58;;;;;;;3.20;2.90;;;;;;;;;;5065625;28;20743;-55
2022/04/13 04:35:24;;;;;;;4.50;4.20;;;;;;;;;;5046793;28;20182;-57
2022/04/13 04:37:51;;;;;;;2.87;2.67;;;;;;;;;;5064034;28;20179;-55
2022/04/13 04:40:17;;;;;;;3.43;2.93;;;;;;;;;;5064981;28;20180;-57
2022/04/13 04:42:51;;;;;;;6.50;2.80;;;;;;;;;;5068696;28;20204;-54
2022/04/13 04:45:19;;;;;;;3.27;2.63;;;;;;;;;;5053406;28;20200;-57
2022/04/13 04:47:45;;;;;;;2.90;2.70;;;;;;;;;;5035669;28;20177;-57
2022/04/13 04:50:12;;;;;;;4.00;3.00;;;;;;;;;;5053860;28;20235;-54
2022/04/13 04:52:42;;;;;;;4.27;3.87;;;;;;;;;;5063505;28;20723;-54
2022/04/13 04:55:11;;;;;;;5.93;2.67;;;;;;;;;;5068780;28;20582;-57
2022/04/13 04:57:38;;;;;;;3.90;2.80;;;;;;;;;;5036529;28;20684;-55
2022/04/13 05:00:06;;;;;;;3.63;3.27;;;;;;;;;;5058652;28;20181;-57
2022/04/13 05:02:32;;;;;;;3.50;2.83;;;;;;;;;;5049952;28;20189;-56
2022/04/13 05:04:59;;;;;;;3.73;2.77;;;;;;;;;;5050638;28;20189;-55
2022/04/13 05:07:25;;;;;;;27.10;5.10;;;;;;;;;;5072585;28;20225;-55
2022/04/13 05:09:51;;;;;;;4.87;3.13;;;;;;;;;;5069706;28;20181;-56
2022/04/13 05:12:17;;;;;;;10.13;3.27;;;;;;;;;;5063036;28;20658;-56
2022/04/13 05:14:43;;;;;;;3.80;3.17;;;;;;;;;;5057681;28;20572;-54
2022/04/13 05:17:09;;;;;;;8.33;4.27;;;;;;;;;;5061561;28;20185;-56
2022/04/13 05:19:35;;;;;;;11.17;4.23;;;;;;;;;;5068375;28;20199;-57
2022/04/13 05:22:01;;;;;;;6.87;3.77;;;;;;;;;;5066933;28;20452;-58
2022/04/13 05:24:27;;;;;;;5.83;3.73;;;;;;;;;;5051029;28;20180;-57
2022/04/13 05:26:53;;;;;;;9.63;3.80;;;;;;;;;;5034262;28;20216;-56
2022/04/13 05:29:21;;;;;;;3.60;3.20;;;;;;;;;;5054875;28;20188;-55
2022/04/13 05:31:47;;;;;;;6.03;3.20;;;;;;;;;;5060980;28;20177;-57
2022/04/13 05:34:13;;;;;;;4.60;3.63;;;;;;;;;;5048621;28;20280;-56
2022/04/13 05:36:39;;;;;;;5.13;3.27;;;;;;;;;;5051198;28;20203;-57
2022/04/13 05:39:05;;;;;;;2.70;2.50;;;;;;;;;;5049240;28;20703;-57
2022/04/13 05:41:31;;;;;;;5.47;4.17;;;;;;;;;;5054539;28;20189;-58
2022/04/13 05:43:57;;;;;;;5.63;2.90;;;;;;;;;;5049078;28;20231;-57
2022/04/13 05:46:23;;;;;;;3.50;3.13;;;;;;;;;;5049445;28;20747;-57
2022/04/13 05:48:50;;;;;;;4.20;3.27;;;;;;;;;;5028367;28;20272;-56
2022/04/13 05:51:16;;;;;;;6.83;3.40;;;;;;;;;;5055101;28;20181;-56
2022/04/13 05:53:42;;;;;;;4.77;3.00;;;;;;;;;;5058329;28;20189;-56
2022/04/13 05:56:08;;;;;;;4.30;3.40;;;;;;;;;;5067183;28;20192;-56
2022/04/13 05:58:34;;;;;;;3.77;3.13;;;;;;;;;;5067947;28;20204;-56
2022/04/13 06:01:00;;;;;;;3.60;3.13;;;;;;;;;;5067972;28;20239;-55
2022/04/13 06:03:26;;;;;;;3.87;3.03;;;;;;;;;;5053333;28;20521;-57
2022/04/13 06:05:52;;;;;;;3.00;2.70;;;;;;;;;;5037527;28;20263;-57
2022/04/13 06:08:18;;;;;;;3.43;3.13;;;;;;;;;;5049587;28;20192;-57
2022/04/13 06:10:44;;;;;;;8.03;3.13;;;;;;;;;;5049515;28;20180;-57
2022/04/13 06:13:11;;;;;;;3.40;2.80;;;;;;;;;;5030324;28;20564;-57
2022/04/13 06:15:37;;;;;;;3.73;2.70;;;;;;;;;;5056520;28;20181;-57
2022/04/13 06:18:03;;;;;;;4.93;3.30;;;;;;;;;;5053948;28;20189;-58
2022/04/13 06:20:29;;;;;;;3.93;3.57;;;;;;;;;;5054294;28;20272;-57
2022/04/13 06:22:55;;;;;;;3.57;3.27;;;;;;;;;;5067164;28;20594;-58
2022/04/13 06:25:22;;;;;;;4.20;2.97;;;;;;;;;;5049134;28;20572;-57
2022/04/13 06:27:49;;;;;;;4.03;2.90;;;;;;;;;;5048249;28;20179;-57
2022/04/13 06:30:15;;;;;;;3.77;2.90;;;;;;;;;;5053138;28;20187;-57
2022/04/13 06:32:43;;;;;;;3.20;2.90;;;;;;;;;;5033306;28;20185;-55
2022/04/13 06:35:11;;;;;;;3.50;3.00;;;;;;;;;;5058778;28;20180;-57
2022/04/13 06:37:39;;;;;;;4.33;2.60;;;;;;;;;;5066829;28;20529;-56
2022/04/13 06:40:05;;;;;;;4.00;3.30;;;;;;;;;;5052531;28;20583;-57
2022/04/13 06:42:39;;;;;;;3.40;2.80;;;;;;;;;;5050663;28;20191;-56
2022/04/13 06:45:06;;;;;;;4.00;2.73;;;;;;;;;;5057438;28;20216;-57
2022/04/13 06:47:33;;;;;;;3.90;2.93;;;;;;;;;;5056486;28;20635;-56
2022/04/13 06:49:59;;;;;;;3.60;3.13;;;;;;;;;;5066360;28;20808;-58
2022/04/13 06:52:25;;;;;;;3.30;2.77;;;;;;;;;;5043396;28;20203;-56
2022/04/13 06:54:52;;;;;;;4.07;3.10;;;;;;;;;;5067055;28;20177;-57
2022/04/13 06:57:18;;;;;;;4.83;3.00;;;;;;;;;;5049182;28;20199;-58
2022/04/13 06:59:44;;;;;;;3.00;2.70;;;;;;;;;;5051187;28;20242;-56
2022/04/13 07:02:10;;;;;;;3.80;3.50;;;;;;;;;;5072006;28;20201;-55
2022/04/13 07:04:37;;;;;;;3.80;3.00;;;;;;;;;;5053702;28;20200;-57
2022/04/13 07:07:04;;;;;;;4.83;3.70;;;;;;;;;;5036784;28;20218;-56
2022/04/13 07:09:30;;;;;;;5.50;3.77;;;;;;;;;;5071952;28;20180;-58
2022/04/13 07:11:57;;;;;;;4.30;3.57;;;;;;;;;;5052849;28;20553;-56
2022/04/13 07:14:23;;;;;;;3.93;3.40;;;;;;;;;;5053631;28;20221;-59
2022/04/13 07:16:49;;;;;;;3.83;3.53;;;;;;;;;;5053622;28;20279;-60
2022/04/13 07:19:16;;;;;;;4.70;3.50;;;;;;;;;;5070299;28;20184;-55
2022/04/13 07:21:43;;;;;;;5.30;3.70;;;;;;;;;;5070791;28;20256;-57
2022/04/13 07:24:10;;;;;;;4.03;3.40;;;;;;;;;;5071963;28;20175;-58
2022/04/13 07:26:37;;;;;;;4.70;3.70;;;;;;;;;;5071869;28;20571;-57
2022/04/13 07:29:03;;;;;;;4.50;3.47;;;;;;;;;;5047030;28;20187;-57
2022/04/13 07:31:30;;;;;;;5.07;3.43;;;;;;;;;;5048748;28;20618;-57
2022/04/13 07:33:56;;;;;;;4.33;3.47;;;;;;;;;;5052622;28;20179;-56
2022/04/13 07:36:23;;;;;;;3.87;3.47;;;;;;;;;;5039192;28;20257;-56
2022/04/13 07:38:50;;;;;;;5.00;3.97;;;;;;;;;;5033343;28;20720;-57
2022/04/13 07:41:16;;;;;;;5.60;3.67;;;;;;;;;;5043860;28;20658;-54
2022/04/13 07:43:46;;;;;;;6.80;4.30;;;;;;;;;;5046384;28;20180;-57
2022/04/13 07:46:13;;;;;;;6.60;4.00;;;;;;;;;;5074054;28;20219;-56
2022/04/13 07:48:39;;;;;;;6.37;5.20;;;;;;;;;;5074679;28;20211;-56
2022/04/13 07:51:06;;;;;;;10.70;5.27;;;;;;;;;;5071580;28;20168;-58
2022/04/13 07:53:32;;;;;;;12.80;7.13;;;;;;;;;;5063356;28;20222;-55
2022/04/13 07:55:58;;;;;;;13.37;7.27;;;;;;;;;;5059692;28;20671;-57
2022/04/13 07:58:24;;;;;;;20.50;7.83;;;;;;;;;;5032495;28;20201;-57
2022/04/13 08:00:50;;;;;;;14.33;7.60;;;;;;;;;;5054094;28;20194;-57
2022/04/13 08:03:17;;;;;;;23.50;7.63;;;;;;;;;;5065002;28;20540;-57
2022/04/13 08:05:43;;;;;;;15.63;7.70;;;;;;;;;;5051538;28;20207;-58
2022/04/13 08:08:10;;;;;;;19.20;8.20;;;;;;;;;;5051831;28;20647;-58
2022/04/13 08:10:36;;;;;;;18.87;8.23;;;;;;;;;;5050854;28;20383;-58
2022/04/13 08:13:02;;;;;;;11.13;7.27;;;;;;;;;;5068636;28;20714;-59
2022/04/13 08:15:28;;;;;;;14.03;7.23;;;;;;;;;;5043159;28;20188;-57
2022/04/13 08:17:55;;;;;;;15.63;7.53;;;;;;;;;;5070093;28;20208;-58
2022/04/13 08:20:21;;;;;;;16.13;6.67;;;;;;;;;;5064762;28;20187;-57
2022/04/13 08:22:47;;;;;;;14.03;7.60;;;;;;;;;;5048243;28;20203;-56
2022/04/13 08:25:14;;;;;;;12.40;6.57;;;;;;;;;;5061755;28;20220;-56
2022/04/13 08:27:40;;;;;;;12.90;7.27;;;;;;;;;;5061139;28;20644;-56
2022/04/13 08:30:06;;;;;;;12.53;6.73;;;;;;;;;;5049484;28;20169;-57
2022/04/13 08:32:33;;;;;;;15.67;7.47;;;;;;;;;;5072939;28;20208;-55
2022/04/13 08:34:59;;;;;;;12.60;6.70;;;;;;;;;;5060738;28;20198;-58
2022/04/13 08:37:25;;;;;;;14.07;7.60;;;;;;;;;;5077577;28;20235;-57
2022/04/13 08:39:51;;;;;;;12.47;6.60;;;;;;;;;;5070616;28;20592;-57
2022/04/13 08:42:31;;;;;;;24.93;11.33;;;;;;;;;;5051238;28;20194;-57
2022/04/13 08:45:01;;;;;;;20.07;11.23;;;;;;;;;;5042833;28;20242;-55
2022/04/13 08:47:28;;;;;;;19.10;11.80;;;;;;;;;;5036834;28;20268;-55
2022/04/13 08:49:55;;;;;;;28.97;12.37;;;;;;;;;;5038894;28;20265;-55
2022/04/13 08:52:24;;;;;;;22.87;11.80;;;;;;;;;;5050624;28;20254;-56
2022/04/13 08:54:51;;;;;;;21.37;11.00;;;;;;;;;;5062298;28;20186;-55
2022/04/13 08:57:21;;;;;;;18.00;10.73;;;;;;;;;;5038843;28;20648;-56
2022/04/13 08:59:51;;;;;;;18.07;9.60;;;;;;;;;;5036079;28;20223;-56
2022/04/13 09:02:32;;;;;;;17.33;10.67;;;;;;;;;;5069615;28;20194;-54
2022/04/13 09:05:01;;;;;;;15.47;9.20;;;;;;;;;;5047482;28;20183;-55
2022/04/13 09:07:33;;;;;;;15.53;10.00;;;;;;;;;;5031426;28;20231;-57
2022/04/13 09:10:01;;;;;;;16.97;10.37;;;;;;;;;;5053047;28;20180;-56
2022/04/13 09:12:33;;;;;;;20.23;9.43;;;;;;;;;;5035476;28;20183;-56
2022/04/13 09:15:00;;;;;;;17.60;9.97;;;;;;;;;;5017565;28;20369;-56
2022/04/13 09:17:31;;;;;;;19.00;10.93;;;;;;;;;;5014059;28;20184;-55
2022/04/13 09:19:57;;;;;;;20.70;10.77;;;;;;;;;;5013451;28;20228;-56
2022/04/13 09:22:23;;;;;;;21.53;10.47;;;;;;;;;;5030356;28;20183;-55
2022/04/13 09:24:56;;;;;;;19.13;10.53;;;;;;;;;;5031057;28;20184;-56
2022/04/13 09:27:22;;;;;;;22.00;11.20;;;;;;;;;;5031589;28;20194;-58
2022/04/13 09:29:49;;;;;;;20.13;10.77;;;;;;;;;;5028215;28;20249;-56
2022/04/13 09:32:15;;;;;;;24.63;9.50;;;;;;;;;;5015681;28;20176;-56
2022/04/13 09:34:42;;;;;;;18.13;9.77;;;;;;;;;;5030477;28;20706;-56
2022/04/13 09:37:08;;;;;;;11.63;8.43;;;;;;;;;;5031293;28;20257;-55
2022/04/13 09:39:35;;;;;;;13.60;8.40;;;;;;;;;;5031053;28;20175;-55
2022/04/13 09:42:05;;;;;;;11.10;7.13;;;;;;;;;;5047996;28;20181;-56
2022/04/13 09:44:34;;;;;;;10.27;6.53;;;;;;;;;;5011872;28;20170;-55
2022/04/13 09:47:07;;;;;;;9.67;6.43;;;;;;;;;;5023217;28;20194;-56
2022/04/13 09:49:34;;;;;;;11.83;7.47;;;;;;;;;;5026944;28;20239;-55
2022/04/13 09:52:01;;;;;;;9.17;6.57;;;;;;;;;;5030014;28;20564;-56
2022/04/13 09:54:28;;;;;;;7.97;6.30;;;;;;;;;;5027610;28;20181;-57
2022/04/13 09:56:55;;;;;;;11.63;6.70;;;;;;;;;;5045399;28;20640;-57
2022/04/13 09:59:25;;;;;;;10.37;6.20;;;;;;;;;;5011290;28;20182;-56
2022/04/13 10:01:51;;;;;;;10.37;6.00;;;;;;;;;;5026848;28;20189;-56
2022/04/13 10:04:44;;;;;;;10.37;6.13;;;;;;;;;;5010082;28;20228;-55
2022/04/13 10:07:15;;;;;;;11.07;5.97;;;;;;;;;;5008130;28;20232;-55
2022/04/13 10:09:41;;;;;;;9.90;6.63;;;;;;;;;;5011014;28;20244;-56
2022/04/13 10:12:09;;;;;;;9.80;6.10;;;;;;;;;;5047188;28;20652;-55
2022/04/13 10:14:35;;;;;;;7.43;5.80;;;;;;;;;;5026843;28;20522;-55
2022/04/13 10:17:20;;;;;;;8.53;6.00;;;;;;;;;;5054430;28;20196;-55
2022/04/13 10:19:57;;;;;;;12.83;5.73;;;;;;;;;;5038809;28;20554;-56
2022/04/13 10:22:23;;;;;;;6.27;4.97;;;;;;;;;;5050168;28;20602;-56
2022/04/13 10:24:50;;;;;;;6.43;5.10;;;;;;;;;;5050749;28;20247;-55
2022/04/13 10:27:20;;;;;;;9.93;5.17;;;;;;;;;;5052992;28;20198;-54
2022/04/13 10:29:47;;;;;;;9.70;5.77;;;;;;;;;;5049332;28;20177;-55
2022/04/13 10:32:15;;;;;;;7.93;4.63;;;;;;;;;;5053234;28;20216;-57
2022/04/13 10:34:44;;;;;;;7.40;5.00;;;;;;;;;;5045439;28;20720;-56
2022/04/13 10:37:12;;;;;;;10.63;5.40;;;;;;;;;;5036970;28;20175;-55
2022/04/13 10:39:38;;;;;;;9.57;5.07;;;;;;;;;;5035189;28;20267;-57
2022/04/13 10:42:05;;;;;;;4.97;4.20;;;;;;;;;;5047874;28;20190;-55
2022/04/13 10:44:31;;;;;;;10.40;4.43;;;;;;;;;;5062940;28;20200;-56
2022/04/13 10:47:01;;;;;;;6.07;4.70;;;;;;;;;;5050089;28;20208;-57
2022/04/13 10:49:29;;;;;;;6.60;4.43;;;;;;;;;;5067056;28;20164;-56
2022/04/13 10:51:59;;;;;;;7.57;4.40;;;;;;;;;;5030498;28;20177;-56
2022/04/13 10:54:31;;;;;;;9.63;5.40;;;;;;;;;;5032285;28;20264;-55
2022/04/13 10:56:58;;;;;;;10.97;5.23;;;;;;;;;;5049246;28;20287;-56
2022/04/13 10:59:33;;;;;;;8.50;5.30;;;;;;;;;;5048263;28;20188;-55
2022/04/13 11:02:02;;;;;;;9.97;5.90;;;;;;;;;;5031110;28;20200;-56
2022/04/13 11:04:32;;;;;;;9.10;5.83;;;;;;;;;;5046486;28;20173;-55
2022/04/13 11:06:59;;;;;;;8.47;4.30;;;;;;;;;;5049061;28;20317;-56
2022/04/13 11:09:52;;;;;;;5.83;4.37;;;;;;;;;;5049109;28;20185;-56
2022/04/13 11:12:18;;;;;;;11.33;4.43;;;;;;;;;;5026786;28;20189;-55
2022/04/13 11:14:52;;;;;;;6.13;4.10;;;;;;;;;;5043644;28;20226;-55
2022/04/13 11:17:25;;;;;;;5.37;3.83;;;;;;;;;;5067891;28;20355;-56
2022/04/13 11:19:52;;;;;;;6.20;4.10;;;;;;;;;;5046963;28;20261;-56
2022/04/13 11:22:19;;;;;;;6.43;3.60;;;;;;;;;;5047347;28;20203;-57
2022/04/13 11:24:49;;;;;;;5.83;3.57;;;;;;;;;;5047223;28;20228;-55
2022/04/13 11:27:16;;;;;;;4.83;3.90;;;;;;;;;;5062219;28;20217;-55
2022/04/13 11:29:46;;;;;;;8.10;4.47;;;;;;;;;;5030894;28;20169;-57
2022/04/13 11:32:13;;;;;;;3.90;3.20;;;;;;;;;;5066989;28;20180;-55
2022/04/13 11:34:49;;;;;;;8.47;4.00;;;;;;;;;;5065473;28;20240;-56
2022/04/13 11:37:20;;;;;;;9.40;3.73;;;;;;;;;;5067337;28;20238;-56
2022/04/13 11:40:10;;;;;;;5.47;3.10;;;;;;;;;;5036018;28;20673;-56
2022/04/13 11:42:37;;;;;;;3.77;3.30;;;;;;;;;;5067961;28;20494;-55
2022/04/13 11:45:03;;;;;;;7.67;3.30;;;;;;;;;;5056684;28;20701;-55
2022/04/13 11:47:40;;;;;;;6.63;4.20;;;;;;;;;;5050238;28;20954;-58
2022/04/13 11:50:07;;;;;;;6.80;4.50;;;;;;;;;;5054322;28;20677;-58
2022/04/13 11:52:40;;;;;;;5.33;4.37;;;;;;;;;;5068732;28;20666;-57
2022/04/13 11:55:26;;;;;;;4.27;3.87;;;;;;;;;;5036888;28;20179;-57
2022/04/13 11:58:21;;;;;;;6.23;4.27;;;;;;;;;;5070530;28;20612;-58
2022/04/13 12:00:52;;;;;;;9.20;4.50;;;;;;;;;;5067404;28;20163;-56
2022/04/13 12:03:32;;;;;;;11.10;9.07;;;;;;;;;;5069454;28;20252;-58
2022/04/13 12:05:58;;;;;;;8.80;5.67;;;;;;;;;;5053284;28;20526;-58
2022/04/13 12:08:29;;;;;;;7.23;5.13;;;;;;;;;;5070325;28;20187;-58
2022/04/13 12:11:05;;;;;;;11.10;4.93;;;;;;;;;;5070772;28;20627;-57
2022/04/13 12:13:33;;;;;;;7.20;5.03;;;;;;;;;;5054516;28;20732;-57
2022/04/13 12:16:00;;;;;;;10.47;4.90;;;;;;;;;;5033584;28;20218;-58
2022/04/13 12:18:27;;;;;;;6.80;4.50;;;;;;;;;;5036148;28;20850;-55
2022/04/13 12:20:54;;;;;;;6.30;4.77;;;;;;;;;;5032004;28;20189;-57
2022/04/13 12:23:27;;;;;;;7.97;6.13;;;;;;;;;;5049843;28;20197;-56
2022/04/13 12:25:55;;;;;;;7.17;4.97;;;;;;;;;;5019405;28;20229;-58
2022/04/13 12:28:22;;;;;;;7.73;4.23;;;;;;;;;;5033526;28;20289;-55
2022/04/13 12:30:55;;;;;;;10.93;4.30;;;;;;;;;;5050188;28;20691;-56
2022/04/13 12:33:23;;;;;;;5.90;4.70;;;;;;;;;;5036987;28;20554;-57
2022/04/13 12:35:53;;;;;;;9.10;5.77;;;;;;;;;;5049454;28;20238;-58
2022/04/13 12:38:29;;;;;;;5.27;4.77;;;;;;;;;;5049965;28;20475;-57
2022/04/13 12:41:03;;;;;;;9.10;4.17;;;;;;;;;;5023047;28;20181;-55
2022/04/13 12:43:29;;;;;;;6.03;4.43;;;;;;;;;;5035390;28;20623;-58
2022/04/13 12:45:56;;;;;;;6.50;4.33;;;;;;;;;;5016638;28;20209;-55
2022/04/13 12:48:28;;;;;;;6.60;4.37;;;;;;;;;;5033576;28;20192;-55
2022/04/13 12:50:59;;;;;;;7.00;5.37;;;;;;;;;;5051285;28;20177;-56
2022/04/13 12:53:26;;;;;;;9.03;5.37;;;;;;;;;;5040285;28;20634;-56
2022/04/13 12:55:53;;;;;;;7.57;5.67;;;;;;;;;;5042737;28;20698;-56
2022/04/13 12:58:20;;;;;;;7.53;5.80;;;;;;;;;;5030108;28;20208;-56
2022/04/13 13:00:50;;;;;;;9.07;5.30;;;;;;;;;;5027630;28;20189;-55
2022/04/13 13:03:17;;;;;;;8.13;4.53;;;;;;;;;;5043625;28;20177;-56
2022/04/13 13:05:43;;;;;;;6.57;4.57;;;;;;;;;;5048787;28;20677;-56
2022/04/13 13:08:10;;;;;;;10.47;5.37;;;;;;;;;;5035852;28;20168;-55
2022/04/13 13:10:36;;;;;;;5.60;5.10;;;;;;;;;;5028742;28;20188;-56
2022/04/13 13:13:10;;;;;;;5.27;4.77;;;;;;;;;;5023120;28;20175;-56
2022/04/13 13:15:37;;;;;;;9.73;5.77;;;;;;;;;;5032091;28;20181;-55
2022/04/13 13:18:07;;;;;;;7.80;5.33;;;;;;;;;;5045692;28;20234;-55
2022/04/13 13:20:35;;;;;;;7.73;6.07;;;;;;;;;;5056198;28;20214;-56
2022/04/13 13:23:09;;;;;;;8.30;5.40;;;;;;;;;;5065994;28;20177;-56
2022/04/13 13:25:42;;;;;;;7.53;5.20;;;;;;;;;;5038791;28;20686;-55
2022/04/13 13:28:08;;;;;;;6.97;6.13;;;;;;;;;;5053102;28;20169;-56
2022/04/13 13:30:39;;;;;;;8.60;7.07;;;;;;;;;;5037944;28;20698;-54
2022/04/13 13:33:10;;;;;;;7.37;6.00;;;;;;;;;;5044949;28;20187;-55
2022/04/13 13:35:36;;;;;;;7.77;5.40;;;;;;;;;;5064524;28;20195;-56
2022/04/13 13:38:09;;;;;;;11.03;6.13;;;;;;;;;;5065203;28;20547;-55
2022/04/13 13:40:54;;;;;;;9.45;7.10;;;;;;;;;;5063332;28;20418;-57
2022/04/13 13:43:23;;;;;;;10.40;6.87;;;;;;;;;;5067246;28;20263;-56
2022/04/13 13:45:50;;;;;;;7.47;6.20;;;;;;;;;;5060383;28;20216;-55
2022/04/13 13:48:21;;;;;;;7.20;6.23;;;;;;;;;;5038391;28;20192;-55
2022/04/13 13:50:50;;;;;;;10.03;7.10;;;;;;;;;;5067571;28;20180;-55
2022/04/13 13:53:16;;;;;;;9.77;6.90;;;;;;;;;;5059862;28;20208;-57
2022/04/13 13:55:43;;;;;;;10.57;8.03;;;;;;;;;;5062645;28;20286;-57
2022/04/13 13:58:09;;;;;;;10.53;7.97;;;;;;;;;;5044359;28;20209;-54
2022/04/13 14:00:35;;;;;;;9.73;7.83;;;;;;;;;;5062401;28;20185;-55
2022/04/13 14:03:06;;;;;;;9.97;7.40;;;;;;;;;;5031111;28;20247;-55
2022/04/13 14:05:32;;;;;;;7.80;6.90;;;;;;;;;;5052333;28;20274;-55
2022/04/13 14:07:59;;;;;;;9.03;6.97;;;;;;;;;;5064906;28;20243;-56
2022/04/13 14:10:28;;;;;;;13.27;8.13;;;;;;;;;;5064385;28;20212;-57
2022/04/13 14:12:54;;;;;;;11.00;7.40;;;;;;;;;;5071175;28;20194;-56
2022/04/13 14:15:20;;;;;;;13.53;8.27;;;;;;;;;;5066390;28;20185;-55
2022/04/13 14:17:48;;;;;;;10.00;8.77;;;;;;;;;;5046011;28;20233;-56
2022/04/13 14:20:15;;;;;;;14.77;11.03;;;;;;;;;;5046859;28;20224;-58
2022/04/13 14:22:42;;;;;;;9.70;8.10;;;;;;;;;;5051015;28;20361;-58
2022/04/13 14:25:08;;;;;;;11.50;7.17;;;;;;;;;;5055360;28;20460;-56
2022/04/13 14:27:35;;;;;;;11.00;7.20;;;;;;;;;;5043278;28;20222;-57
2022/04/13 14:30:02;;;;;;;8.37;7.27;;;;;;;;;;5064812;28;20183;-59
2022/04/13 14:32:29;;;;;;;12.83;7.33;;;;;;;;;;5066839;28;20578;-55
2022/04/13 14:34:55;;;;;;;12.47;7.80;;;;;;;;;;5057256;28;20516;-57
2022/04/13 14:37:22;;;;;;;9.30;7.03;;;;;;;;;;5064619;28;20218;-58
2022/04/13 14:39:49;;;;;;;8.10;7.47;;;;;;;;;;5067869;28;20218;-56
2022/04/13 14:42:15;;;;;;;8.30;6.40;;;;;;;;;;5045871;28;20599;-58